KVNYMMML

Guest
Details From KVNY - Van Nuys
To MMML - GENERAL RODOLFO SANCHEZ TABOADA INTL
Flight Number -
Tags generated
Created
Modified
Stats Distance 190 nm / 352 km
Max Altitude 21,200 ft / 6,462 m
Waypoints 3
Social Downloads 0
Likes 0
Share VATSIM

Download

Looking for another format? Having issues loading an existing format? Contact us
Advertisement - Login to hide

Notes

Basic altitude profile: - Ascent Rate: 2500ft/min - Ascent Speed: 250kts - Cruise Altitude: 35000ft - Cruise Speed: 420kts - Descent Rate: 1500ft/min - Descent Speed: 250kts Options: - Use NATs: yes - Use PACOTS: yes - Use low airways: yes - Use high airways: yes

Route

KVNY HEMET MMML

ID Type Via Altitude Latitude Longitude Leg Dist Tot Dist Heading (true) Name
O KVNY APT - 0 ft / 0 m 34.21072˚ -118.48984˚ - 0 nm - Van Nuys
HEMET FIX - 21,200 ft / 6,462 m 33.69049˚ -116.87905˚ 86 nm 86 nm 111° / 112° -
O MMML APT - 0 ft / 0 m 32.63067˚ -115.24244˚ 104 nm 190 nm 127° / 128° GENERAL RODOLFO SANCHEZ TABOADA INTL

Altitude Profile

Advertisement - Login to hide

Weather


0- 5 10 15 20 25 30 35+ Temperature / ° C

Clouds and Precipitation
Forecast for 2017-12-12 12:00 UTC. Updated 2 hours ago

Ground ~20,000 ft ~40,000 ft Winds

KVNY

Details ICAO KVNY (VNY)
Name Van Nuys
Region United States
Timezone America/Los_Angeles (UTC-8.0)
Stats Elevation 802 ft / 244 m (AMSL)
Location 34.210723° -118.489841°
Runways 2
Magnetic Variation 12.075° E

METAR

KVNY 120951Z AUTO 36014KT 10SM CLR 18/M26 A3020 RMK AO2 SLP218 T01831261

Decode

TAF

KVNY 120912Z 1209/1306 36014G22KT P6SM SKC FM121100 36006KT P6SM SKC FM122000 36012KT P6SM SKC FM130400 36006KT P6SM SKC

Decode

Departure Runways

ID Width Length Bearing (true) Bearing (mag) Surface Threshold Offset Overrun Length
16L 75 ft / 23 m 4,021 ft / 1,226 m 175.53° 163.45° Asphalt 1,430 ft / 436 m 0 ft / 0 m
16R 151 ft / 46 m 8,022 ft / 2,445 m 175.54° 163.46° Asphalt 1,430 ft / 436 m 151 ft / 46 m
34L 151 ft / 46 m 8,022 ft / 2,445 m 355.54° 343.46° Asphalt 0 ft / 0 m 151 ft / 46 m
34R 75 ft / 23 m 4,021 ft / 1,226 m 355.53° 343.45° Asphalt 0 ft / 0 m 0 ft / 0 m

MMML

Details ICAO MMML (MXL)
Name GENERAL RODOLFO SANCHEZ TABOADA INTL
Region Mexico
Timezone America/Tijuana (UTC-8.0)
Stats Elevation 74 ft / 23 m (AMSL)
Location 32.630667° -115.242439°
Runways 1
Magnetic Variation 11.067° E

METAR

Not found

TAF

TAF MMML 120514Z 1206/1306 30005KT P6SM SKC FM12170 30010KT P6SM SKC FM130200 30005KT P6SM SKC

Decode

Destination Runways

ID Width Length Bearing (true) Bearing (mag) Surface Threshold Offset Overrun Length
10 148 ft / 45 m 8,536 ft / 2,602 m 118.32° 107.25° Concrete 0 ft / 0 m 200 ft / 61 m
28 148 ft / 45 m 8,536 ft / 2,602 m 298.34° 287.27° Concrete 0 ft / 0 m 200 ft / 61 m